createdAt,value
2018-05-07T00:00:58.355Z,46.55
2018-05-07T00:01:58.199Z,46.48
2018-05-07T00:02:58.263Z,46.53
2018-05-07T00:03:58.385Z,46.54
2018-05-07T00:04:58.165Z,46.51
2018-05-07T00:05:58.596Z,46.51
2018-05-07T00:06:58.113Z,46.49
2018-05-07T00:07:58.471Z,46.47
2018-05-07T00:08:58.161Z,46.52
2018-05-07T00:09:58.359Z,46.47
2018-05-07T00:10:58.424Z,46.48
2018-05-07T00:11:58.458Z,46.46
2018-05-07T00:12:58.318Z,46.57
2018-05-07T00:13:58.224Z,46.5
2018-05-07T00:14:58.192Z,46.49
2018-05-07T00:15:58.224Z,46.52
2018-05-07T00:16:58.207Z,46.5
2018-05-07T00:17:58.445Z,46.52
2018-05-07T00:18:58.301Z,46.57
2018-05-07T00:19:58.216Z,46.48
2018-05-07T00:20:58.241Z,46.5
2018-05-07T00:21:58.306Z,46.5
2018-05-07T00:22:58.368Z,46.51
2018-05-07T00:23:58.228Z,46.56
2018-05-07T00:24:58.316Z,46.48
2018-05-07T00:25:58.256Z,46.47
2018-05-07T00:26:58.220Z,46.51
2018-05-07T00:27:58.374Z,46.52
2018-05-07T00:28:58.446Z,46.5
2018-05-07T00:29:58.322Z,46.48
2018-05-07T00:30:58.448Z,46.47
2018-05-07T00:31:58.324Z,46.47
2018-05-07T00:32:58.337Z,46.5
2018-05-07T00:33:58.222Z,46.48
2018-05-07T00:34:58.311Z,46.46
2018-05-07T00:35:58.425Z,46.48
2018-05-07T00:36:58.471Z,46.52
2018-05-07T00:37:58.356Z,46.49
2018-05-07T00:38:58.226Z,46.5
2018-05-07T00:39:58.482Z,46.5
2018-05-07T00:40:58.441Z,46.52
2018-05-07T00:41:58.387Z,46.51
2018-05-07T00:42:58.394Z,46.55
2018-05-07T00:43:58.368Z,46.48
2018-05-07T00:44:58.238Z,46.5
2018-05-07T00:45:58.340Z,46.51
2018-05-07T00:46:58.359Z,46.41
2018-05-07T00:47:58.342Z,46.47
2018-05-07T00:48:58.132Z,46.56
2018-05-07T00:49:58.371Z,46.52
2018-05-07T00:50:58.345Z,46.55
2018-05-07T00:51:58.351Z,46.49
2018-05-07T00:52:58.236Z,46.46
2018-05-07T00:53:58.241Z,46.45
2018-05-07T00:54:58.347Z,46.54
2018-05-07T00:55:58.254Z,46.5
2018-05-07T00:56:58.192Z,46.47
2018-05-07T00:57:58.299Z,46.5
2018-05-07T00:58:58.219Z,46.46
2018-05-07T00:59:58.224Z,46.46
2018-05-07T01:00:58.407Z,46.51
2018-05-07T01:01:58.248Z,46.5
2018-05-07T01:02:58.194Z,46.45
2018-05-07T01:03:58.176Z,46.49
2018-05-07T01:04:58.591Z,46.46
2018-05-07T01:05:58.353Z,46.47
2018-05-07T01:06:58.394Z,46.48
2018-05-07T01:07:58.297Z,46.46
2018-05-07T01:08:58.281Z,46.5
2018-05-07T01:09:58.268Z,46.5
2018-05-07T01:10:58.338Z,46.49
2018-05-07T01:11:58.321Z,46.53
2018-05-07T01:12:58.419Z,46.52
2018-05-07T01:13:58.239Z,46.5
2018-05-07T01:14:58.361Z,46.46
2018-05-07T01:15:58.305Z,46.5
2018-05-07T01:16:58.435Z,46.49
2018-05-07T01:17:58.208Z,46.46
2018-05-07T01:18:58.354Z,46.49
2018-05-07T01:19:58.344Z,46.48
2018-05-07T01:20:58.167Z,46.44
2018-05-07T01:21:58.257Z,46.5
2018-05-07T01:22:58.254Z,46.49
2018-05-07T01:23:58.256Z,46.44
2018-05-07T01:24:58.326Z,46.52
2018-05-07T01:25:58.308Z,46.46
2018-05-07T01:26:58.354Z,46.44
2018-05-07T01:27:58.308Z,46.47
2018-05-07T01:28:58.477Z,46.47
2018-05-07T01:29:58.314Z,46.44
2018-05-07T01:30:58.340Z,46.52
2018-05-07T01:31:58.193Z,46.48
2018-05-07T01:32:58.206Z,46.49
2018-05-07T01:33:58.308Z,46.5
2018-05-07T01:34:58.346Z,46.42
2018-05-07T01:35:58.172Z,46.48
2018-05-07T01:36:58.202Z,46.42
2018-05-07T01:37:58.328Z,46.45
2018-05-07T01:39:08.228Z,46.49
2018-05-07T01:39:58.217Z,46.5
2018-05-07T01:40:58.367Z,46.5
2018-05-07T01:41:58.290Z,46.47
2018-05-07T01:42:58.309Z,46.44
2018-05-07T01:43:58.375Z,46.43
2018-05-07T01:44:58.433Z,46.46
2018-05-07T01:45:58.362Z,46.45
2018-05-07T01:46:58.378Z,46.46
2018-05-07T01:47:58.613Z,46.41
2018-05-07T01:48:58.358Z,46.46
2018-05-07T01:49:58.444Z,46.44
2018-05-07T01:50:58.301Z,46.44
2018-05-07T01:51:58.096Z,46.49
2018-05-07T01:52:58.337Z,46.47
2018-05-07T01:53:58.408Z,46.43
2018-05-07T01:54:58.312Z,46.45
2018-05-07T01:55:58.227Z,46.44
2018-05-07T01:56:58.237Z,46.44
2018-05-07T01:57:58.255Z,46.46
2018-05-07T01:58:58.381Z,46.44
2018-05-07T01:59:58.290Z,46.42
2018-05-07T02:00:58.320Z,46.48
2018-05-07T02:01:58.318Z,46.45
2018-05-07T02:02:58.223Z,46.41
2018-05-07T02:03:58.315Z,46.46
2018-05-07T02:04:58.189Z,46.43
2018-05-07T02:05:58.164Z,46.41
2018-05-07T02:06:58.326Z,46.45
2018-05-07T02:07:58.224Z,46.49
2018-05-07T02:08:58.406Z,46.47
2018-05-07T02:09:58.184Z,46.45
2018-05-07T02:10:58.271Z,46.38
2018-05-07T02:11:58.437Z,46.45
2018-05-07T02:12:58.221Z,46.43
2018-05-07T02:13:58.320Z,46.43
2018-05-07T02:14:58.211Z,46.42
2018-05-07T02:15:58.314Z,46.47
2018-05-07T02:16:58.145Z,46.45
2018-05-07T02:17:58.338Z,46.47
2018-05-07T02:18:58.492Z,46.48
2018-05-07T02:19:58.279Z,46.43
2018-05-07T02:20:58.233Z,46.44
2018-05-07T02:21:58.371Z,46.48
2018-05-07T02:22:58.299Z,46.46
2018-05-07T02:23:58.264Z,46.4
2018-05-07T02:24:58.272Z,46.47
2018-05-07T02:25:58.351Z,46.35
2018-05-07T02:26:58.300Z,46.45
2018-05-07T02:27:58.176Z,46.48
2018-05-07T02:28:58.385Z,46.48
2018-05-07T02:29:58.142Z,46.42
2018-05-07T02:30:58.319Z,46.49
2018-05-07T02:31:58.313Z,46.37
2018-05-07T02:32:58.302Z,46.41
2018-05-07T02:33:58.206Z,46.45
2018-05-07T02:34:58.243Z,46.43
2018-05-07T02:35:58.290Z,46.48
2018-05-07T02:36:58.364Z,46.39
2018-05-07T02:37:58.237Z,46.41
2018-05-07T02:38:58.443Z,46.44
2018-05-07T02:39:58.272Z,46.44
2018-05-07T02:40:58.198Z,46.36
2018-05-07T02:41:58.244Z,46.45
2018-05-07T02:42:58.261Z,46.47
2018-05-07T02:43:58.217Z,46.4
2018-05-07T02:44:58.229Z,46.36
2018-05-07T02:45:58.219Z,46.47
2018-05-07T02:46:58.371Z,46.4
2018-05-07T02:47:58.460Z,46.49
2018-05-07T02:48:58.268Z,46.44
2018-05-07T02:49:58.259Z,46.38
2018-05-07T02:50:58.253Z,46.45
2018-05-07T02:51:58.397Z,46.43
2018-05-07T02:52:58.205Z,46.4
2018-05-07T02:53:58.116Z,46.36
2018-05-07T02:54:58.182Z,46.42
2018-05-07T02:55:58.130Z,46.33
2018-05-07T02:56:58.184Z,46.43
2018-05-07T02:57:58.306Z,46.38
2018-05-07T02:58:58.364Z,46.36
2018-05-07T02:59:58.286Z,46.42
2018-05-07T03:00:58.188Z,46.39
2018-05-07T03:01:58.241Z,46.39
2018-05-07T03:02:58.137Z,46.45
2018-05-07T03:03:58.129Z,46.39
2018-05-07T03:04:58.263Z,46.37
2018-05-07T03:05:58.157Z,46.4
2018-05-07T03:06:58.164Z,46.39
2018-05-07T03:07:58.276Z,46.38
2018-05-07T03:08:58.259Z,46.4
2018-05-07T03:09:58.187Z,46.4
2018-05-07T03:10:58.189Z,46.3
2018-05-07T03:11:58.225Z,46.37
2018-05-07T03:12:58.240Z,46.41
2018-05-07T03:13:58.166Z,46.37
2018-05-07T03:14:58.243Z,46.35
2018-05-07T03:15:58.181Z,46.38
2018-05-07T03:16:58.405Z,46.36
2018-05-07T03:17:58.276Z,46.36
2018-05-07T03:18:58.279Z,46.37
2018-05-07T03:19:58.302Z,46.3
2018-05-07T03:20:58.333Z,46.37
2018-05-07T03:21:58.248Z,46.35
2018-05-07T03:22:58.482Z,46.33
2018-05-07T03:23:58.293Z,46.34
2018-05-07T03:24:58.270Z,46.38
2018-05-07T03:25:58.143Z,46.37
2018-05-07T03:26:58.221Z,46.37
2018-05-07T03:27:58.157Z,46.35
2018-05-07T03:28:58.205Z,46.35
2018-05-07T03:29:58.145Z,46.39
2018-05-07T03:30:58.195Z,46.33
2018-05-07T03:31:58.383Z,46.35
2018-05-07T03:32:58.430Z,46.32
2018-05-07T03:33:58.205Z,46.37
2018-05-07T03:34:58.304Z,46.33
2018-05-07T03:35:58.181Z,46.35
2018-05-07T03:36:58.324Z,46.33
2018-05-07T03:37:58.263Z,46.37
2018-05-07T03:38:58.317Z,46.33
2018-05-07T03:40:58.202Z,46.36
2018-05-07T03:41:58.234Z,46.32
2018-05-07T03:42:58.314Z,46.4
2018-05-07T03:43:58.256Z,46.39
2018-05-07T03:44:58.260Z,46.41
2018-05-07T06:01:42.182Z,46.25
2018-05-07T06:02:42.525Z,46.28
2018-05-07T06:03:42.427Z,46.29
2018-05-07T06:04:42.349Z,46.28
2018-05-07T06:05:42.072Z,46.23
2018-05-07T06:06:42.188Z,46.23
2018-05-07T06:07:42.258Z,46.32
2018-05-07T06:08:42.236Z,46.27
2018-05-07T06:09:42.229Z,46.28
2018-05-07T06:10:42.164Z,46.22
2018-05-07T06:11:42.308Z,46.2
2018-05-07T06:12:42.039Z,46.24
2018-05-07T06:13:42.155Z,46.25
2018-05-07T06:14:42.394Z,46.25
2018-05-07T06:15:42.030Z,46.21
2018-05-07T06:16:42.423Z,46.29
2018-05-07T06:17:41.988Z,46.2
2018-05-07T06:18:42.133Z,46.27
2018-05-07T06:19:42.330Z,46.23
2018-05-07T06:20:42.167Z,46.22
2018-05-07T06:21:42.134Z,46.2
2018-05-07T06:22:42.109Z,46.26
2018-05-07T06:23:42.002Z,46.18
2018-05-07T06:24:42.111Z,46.18
2018-05-07T06:25:42.149Z,46.23
2018-05-07T06:26:42.150Z,46.21
2018-05-07T06:27:41.999Z,46.18
2018-05-07T06:28:42.267Z,46.23
2018-05-07T06:29:42.030Z,46.22
2018-05-07T06:30:42.072Z,46.25
2018-05-07T06:31:42.129Z,46.22
2018-05-07T06:32:42.107Z,46.22
2018-05-07T06:33:42.166Z,46.24
2018-05-07T06:34:42.033Z,46.22
2018-05-07T06:35:42.247Z,46.2
2018-05-07T06:36:42.160Z,46.17
2018-05-07T06:37:42.085Z,46.23
2018-05-07T06:38:42.318Z,46.23
2018-05-07T06:39:42.263Z,46.2
2018-05-07T06:40:42.151Z,46.25
2018-05-07T06:41:42.196Z,46.23
2018-05-07T06:42:42.229Z,46.27
2018-05-07T06:43:42.355Z,46.26
2018-05-07T06:44:42.040Z,46.24
2018-05-07T06:45:42.079Z,46.18
2018-05-07T06:46:42.193Z,46.2
2018-05-07T06:47:42.174Z,46.16
2018-05-07T06:48:42.208Z,46.19
2018-05-07T06:49:42.159Z,46.22
2018-05-07T06:50:42.089Z,46.14
2018-05-07T06:51:42.240Z,46.2
2018-05-07T06:52:42.359Z,46.26
2018-05-07T06:53:43.395Z,46.2
2018-05-07T06:54:42.237Z,46.21
2018-05-07T06:55:42.169Z,46.19
2018-05-07T06:56:42.096Z,46.2
2018-05-07T06:57:42.155Z,46.2
2018-05-07T06:58:42.217Z,46.18
2018-05-07T06:59:42.166Z,46.2
2018-05-07T07:00:42.084Z,46.15
2018-05-07T07:01:42.186Z,46.19
2018-05-07T07:02:42.398Z,46.15
2018-05-07T07:03:42.242Z,46.21
2018-05-07T07:04:42.168Z,46.23
2018-05-07T07:05:42.232Z,46.14
2018-05-07T07:06:42.200Z,46.21
2018-05-07T07:07:41.977Z,46.19
2018-05-07T07:08:42.335Z,46.2
2018-05-07T07:09:42.171Z,46.2
2018-05-07T07:10:42.149Z,46.26
2018-05-07T07:11:42.087Z,46.19
2018-05-07T07:12:42.130Z,46.14
2018-05-07T07:13:42.151Z,46.18
2018-05-07T07:14:42.128Z,46.18
2018-05-07T07:15:42.103Z,46.21
2018-05-07T07:16:42.192Z,46.19
2018-05-07T07:17:42.207Z,46.16
2018-05-07T07:18:41.963Z,46.18
2018-05-07T07:19:42.004Z,46.19
2018-05-07T07:20:42.072Z,46.17
2018-05-07T07:21:42.079Z,46.11
2018-05-07T07:22:42.062Z,46.21
2018-05-07T07:23:42.162Z,46.16
2018-05-07T07:24:42.222Z,46.15
2018-05-07T07:25:42.031Z,46.21
2018-05-07T07:26:42.257Z,46.15
2018-05-07T07:27:42.131Z,46.13
2018-05-07T07:28:42.037Z,46.18
2018-05-07T07:29:52.015Z,46.17
2018-05-07T07:30:42.008Z,46.21
2018-05-07T07:31:42.210Z,46.2
2018-05-07T07:32:42.159Z,46.12
2018-05-07T07:33:42.361Z,46.19
2018-05-07T07:34:42.042Z,46.19
2018-05-07T07:35:41.996Z,46.17
2018-05-07T07:36:42.140Z,46.18
2018-05-07T07:37:42.163Z,46.2
2018-05-07T07:38:42.571Z,46.15
2018-05-07T07:39:42.391Z,46.18
2018-05-07T07:40:42.213Z,46.19
2018-05-07T07:41:42.235Z,46.17
2018-05-07T07:42:42.148Z,46.18
2018-05-07T07:43:42.146Z,46.18
2018-05-07T07:44:42.170Z,46.15
2018-05-07T07:45:42.064Z,46.18
2018-05-07T07:46:41.955Z,46.17
2018-05-07T07:47:42.363Z,46.13
2018-05-07T07:48:42.147Z,46.18
2018-05-07T07:49:42.256Z,46.19
2018-05-07T07:50:42.244Z,46.16
2018-05-07T07:51:42.339Z,46.21
2018-05-07T07:52:42.113Z,46.17
2018-05-07T07:53:42.300Z,46.17
2018-05-07T07:54:42.101Z,46.16
2018-05-07T07:55:42.015Z,46.19
2018-05-07T07:56:42.157Z,46.17
2018-05-07T07:57:41.950Z,46.16
2018-05-07T07:58:42.118Z,46.18
2018-05-07T07:59:42.110Z,46.17
2018-05-07T08:00:42.172Z,46.18
2018-05-07T08:01:42.416Z,46.18
2018-05-07T08:02:42.094Z,46.15
2018-05-07T08:03:42.127Z,46.18
2018-05-07T08:04:42.215Z,46.16
2018-05-07T08:05:42.055Z,46.15
2018-05-07T08:06:42.154Z,46.19
2018-05-07T08:07:42.277Z,46.23
2018-05-07T08:08:42.010Z,46.14
2018-05-07T08:09:42.072Z,46.16
2018-05-07T08:10:42.120Z,46.23
2018-05-07T08:11:42.186Z,46.14
2018-05-07T08:12:42.158Z,46.2
2018-05-07T08:13:42.199Z,46.22
2018-05-07T08:14:42.164Z,46.21
2018-05-07T08:15:42.093Z,46.11
2018-05-07T08:16:41.993Z,46.19
2018-05-07T08:17:42.000Z,46.13
2018-05-07T08:18:42.138Z,46.14
2018-05-07T08:19:42.018Z,46.16
2018-05-07T08:20:42.035Z,46.15
2018-05-07T08:21:42.040Z,46.17
2018-05-07T08:22:42.141Z,46.24
2018-05-07T08:23:42.054Z,46.14
2018-05-07T08:24:42.211Z,46.15
2018-05-07T08:25:42.193Z,46.19
2018-05-07T08:26:42.087Z,46.15
2018-05-07T08:27:42.224Z,46.12
2018-05-07T08:28:42.307Z,46.2
2018-05-07T08:29:42.066Z,46.14
2018-05-07T08:30:41.962Z,46.15
2018-05-07T08:31:42.025Z,46.17
2018-05-07T08:32:42.112Z,46.19
2018-05-07T08:33:42.156Z,46.16
2018-05-07T08:34:42.097Z,46.2
2018-05-07T08:35:42.218Z,46.17
2018-05-07T08:36:42.346Z,46.2
2018-05-07T08:37:42.068Z,46.21
2018-05-07T08:38:42.028Z,46.15
2018-05-07T08:39:42.205Z,46.12
2018-05-07T08:40:42.133Z,46.23
2018-05-07T08:41:42.024Z,46.15
2018-05-07T08:42:42.045Z,46.19
2018-05-07T08:43:42.193Z,46.19
2018-05-07T08:44:42.102Z,46.2
2018-05-07T08:45:42.078Z,46.19
2018-05-07T08:46:42.091Z,46.17
2018-05-07T08:47:42.115Z,46.18
2018-05-07T08:48:42.104Z,46.14
2018-05-07T08:49:41.976Z,46.17
2018-05-07T08:50:41.951Z,46.13
2018-05-07T08:51:42.259Z,46.17
2018-05-07T08:52:42.107Z,46.16
2018-05-07T08:53:42.190Z,46.16
2018-05-07T08:54:42.054Z,46.14
2018-05-07T08:55:42.168Z,46.21
2018-05-07T08:56:41.991Z,46.15
2018-05-07T08:57:42.299Z,46.2
2018-05-07T08:58:42.147Z,46.22
2018-05-07T08:59:42.120Z,46.15
2018-05-07T09:00:42.066Z,46.14
2018-05-07T09:01:41.971Z,46.16
2018-05-07T09:02:42.173Z,46.17
2018-05-07T09:03:41.958Z,46.15
2018-05-07T09:04:41.948Z,46.24
2018-05-07T09:05:41.969Z,46.15
2018-05-07T09:06:41.960Z,46.19
2018-05-07T09:07:42.183Z,46.19
2018-05-07T09:08:42.210Z,46.16
2018-05-07T09:09:42.060Z,46.2
2018-05-07T09:10:42.192Z,46.16
2018-05-07T09:11:42.169Z,46.16
2018-05-07T09:12:42.239Z,46.18
2018-05-07T09:13:42.459Z,46.17
2018-05-07T09:14:41.981Z,46.2
2018-05-07T09:15:42.155Z,46.11
2018-05-07T09:16:42.171Z,46.21
2018-05-07T09:17:42.022Z,46.19
2018-05-07T09:18:42.209Z,46.25
2018-05-07T09:19:42.131Z,46.24
2018-05-07T09:20:42.196Z,46.17
2018-05-07T09:21:42.045Z,46.15
2018-05-07T09:22:42.227Z,46.24
2018-05-07T09:23:42.197Z,46.22
2018-05-07T09:24:42.304Z,46.17
2018-05-07T09:25:52.009Z,46.21
2018-05-07T09:26:42.141Z,46.2
2018-05-07T09:27:41.980Z,46.19
2018-05-07T09:28:42.236Z,46.2
2018-05-07T09:29:41.988Z,46.17
2018-05-07T09:30:41.919Z,46.19
2018-05-07T09:31:41.982Z,46.23
2018-05-07T09:32:41.980Z,46.2
2018-05-07T09:33:42.025Z,46.19
2018-05-07T09:34:42.086Z,46.12
2018-05-07T09:35:42.116Z,46.25
2018-05-07T09:36:42.056Z,46.17
2018-05-07T09:37:42.025Z,46.19
2018-05-07T09:38:42.198Z,46.21
2018-05-07T09:39:42.043Z,46.2
2018-05-07T09:40:42.127Z,46.17
2018-05-07T09:41:41.973Z,46.19
2018-05-07T09:42:41.944Z,46.18
2018-05-07T09:43:42.153Z,46.25
2018-05-07T09:44:42.163Z,46.2
2018-05-07T09:45:42.117Z,46.2
2018-05-07T09:46:41.988Z,46.23
2018-05-07T09:47:42.175Z,46.15
2018-05-07T09:48:42.142Z,46.21
2018-05-07T09:49:42.181Z,46.21
2018-05-07T09:50:42.039Z,46.17
2018-05-07T09:51:42.006Z,46.18
2018-05-07T09:52:42.203Z,46.22
2018-05-07T09:53:42.069Z,46.17
2018-05-07T09:54:41.984Z,46.17
2018-05-07T09:55:42.207Z,46.29
2018-05-07T09:56:42.067Z,46.21
2018-05-07T09:57:42.058Z,46.17
2018-05-07T09:58:42.002Z,46.25
2018-05-07T09:59:42.120Z,46.14
2018-05-07T10:00:41.977Z,46.25
2018-05-07T10:01:42.065Z,46.28
2018-05-07T10:02:42.080Z,46.18
2018-05-07T10:03:42.058Z,46.19
2018-05-07T10:04:41.934Z,46.21
2018-05-07T10:05:42.302Z,46.16
2018-05-07T10:06:42.054Z,46.24
2018-05-07T10:07:41.954Z,46.21
2018-05-07T10:08:42.062Z,46.14
2018-05-07T10:09:42.087Z,46.27
2018-05-07T10:10:42.196Z,46.22
2018-05-07T10:11:42.056Z,46.22
2018-05-07T10:12:41.947Z,46.23
2018-05-07T10:13:42.034Z,46.22
2018-05-07T10:14:42.007Z,46.19
2018-05-07T10:15:41.892Z,46.17
2018-05-07T10:16:42.137Z,46.2
2018-05-07T10:17:42.197Z,46.18
2018-05-07T10:18:42.005Z,46.23
2018-05-07T10:19:42.211Z,46.2
2018-05-07T10:20:42.088Z,46.21
2018-05-07T10:21:42.014Z,46.21
2018-05-07T10:22:42.016Z,46.22
2018-05-07T10:23:42.122Z,46.16
2018-05-07T10:24:42.166Z,46.18
2018-05-07T10:25:41.976Z,46.14
2018-05-07T10:26:41.903Z,46.17
2018-05-07T10:27:41.977Z,46.15
2018-05-07T10:28:42.029Z,46.18
2018-05-07T10:29:42.259Z,46.19
2018-05-07T10:30:42.119Z,46.2
2018-05-07T10:31:41.987Z,46.21
2018-05-07T10:32:42.136Z,46.18
2018-05-07T10:33:42.056Z,46.23
2018-05-07T10:34:41.987Z,46.22
2018-05-07T10:35:42.148Z,46.21
2018-05-07T10:36:42.140Z,46.24
2018-05-07T10:37:41.946Z,46.18
2018-05-07T10:38:42.006Z,46.22
2018-05-07T10:39:42.043Z,46.21
2018-05-07T10:40:42.153Z,46.19
2018-05-07T10:41:41.972Z,46.2
2018-05-07T10:42:42.018Z,46.21
2018-05-07T10:43:42.109Z,46.19
2018-05-07T10:44:42.130Z,46.2
2018-05-07T10:45:42.028Z,46.16
2018-05-07T10:46:42.068Z,46.22
2018-05-07T10:47:42.023Z,46.19
2018-05-07T10:48:42.026Z,46.23
2018-05-07T10:49:41.940Z,46.21
2018-05-07T10:50:42.067Z,46.2
2018-05-07T10:51:41.992Z,46.25
2018-05-07T10:52:42.007Z,46.25
2018-05-07T10:53:41.982Z,46.23
2018-05-07T10:54:42.014Z,46.2
2018-05-07T10:55:41.900Z,46.2
2018-05-07T10:56:42.198Z,46.21
2018-05-07T10:57:42.373Z,46.16
2018-05-07T10:58:41.949Z,46.26
2018-05-07T10:59:41.944Z,46.2
2018-05-07T11:00:42.008Z,46.25
2018-05-07T11:01:42.256Z,46.26
2018-05-07T11:02:42.045Z,46.2
2018-05-07T11:03:41.881Z,46.15
2018-05-07T11:04:42.036Z,46.18
2018-05-07T11:05:42.025Z,46.23
2018-05-07T11:06:41.890Z,46.17
2018-05-07T11:07:42.219Z,46.2
2018-05-07T11:08:42.164Z,46.19
2018-05-07T11:09:42.084Z,46.16
2018-05-07T11:11:12.955Z,46.21
2018-05-07T11:11:42.103Z,46.17
2018-05-07T11:12:42.018Z,46.22
2018-05-07T11:13:41.891Z,46.22
2018-05-07T11:14:42.059Z,46.2
2018-05-07T11:15:41.922Z,46.22
2018-05-07T11:16:41.973Z,46.21
2018-05-07T11:17:42.085Z,46.2
2018-05-07T11:18:42.101Z,46.2
2018-05-07T11:19:42.077Z,46.19
2018-05-07T11:20:41.974Z,46.15
2018-05-07T11:21:42.010Z,46.2
2018-05-07T11:22:42.010Z,46.19
2018-05-07T11:23:42.158Z,46.39
2018-05-07T11:24:42.101Z,46.36
2018-05-07T11:25:42.153Z,46.35
2018-05-07T11:26:41.988Z,46.16
2018-05-07T11:27:42.307Z,46.17
2018-05-07T11:28:42.158Z,46.21
2018-05-07T11:29:42.047Z,46.18
2018-05-07T11:30:42.064Z,46.18
2018-05-07T11:31:42.159Z,46.25
2018-05-07T11:32:42.105Z,46.17
2018-05-07T11:33:41.999Z,46.19
2018-05-07T11:34:42.159Z,46.16
2018-05-07T11:35:42.066Z,46.15
2018-05-07T11:36:41.988Z,46.15
2018-05-07T11:37:42.210Z,46.21
2018-05-07T11:38:41.974Z,46.14
2018-05-07T11:39:42.066Z,46.18
2018-05-07T11:40:41.992Z,46.21
2018-05-07T11:41:41.984Z,46.17
2018-05-07T11:42:42.114Z,46.16
2018-05-07T11:43:42.040Z,46.18
2018-05-07T11:44:41.954Z,46.43
2018-05-07T11:45:41.980Z,46.56
2018-05-07T11:46:42.026Z,46.53
2018-05-07T11:47:42.192Z,46.36
2018-05-07T11:48:41.950Z,46.28
2018-05-07T11:49:41.873Z,46.29
2018-05-07T11:50:42.053Z,46.17
2018-05-07T11:51:41.976Z,46.19
2018-05-07T11:52:42.161Z,46.14
2018-05-07T11:53:41.998Z,46.1
2018-05-07T11:54:42.085Z,46.1
2018-05-07T11:55:41.960Z,46.15
2018-05-07T11:56:41.979Z,46.08
2018-05-07T11:57:42.104Z,46.12
2018-05-07T11:58:42.076Z,46.13
2018-05-07T11:59:42.010Z,46.04
2018-05-07T12:00:42.038Z,46.1
2018-05-07T12:01:42.046Z,46.2
2018-05-07T12:02:42.147Z,46.14
2018-05-07T12:03:42.035Z,46.17
2018-05-07T12:04:41.972Z,46.18
2018-05-07T12:05:42.146Z,46.06
2018-05-07T12:06:41.963Z,46.1
2018-05-07T12:07:41.938Z,46.19
2018-05-07T12:08:42.076Z,46.05
2018-05-07T12:09:41.970Z,46.13
2018-05-07T12:10:41.996Z,46.07
2018-05-07T12:11:42.113Z,45.94
2018-05-07T12:12:41.950Z,45.99
2018-05-07T12:13:42.017Z,45.86
2018-05-07T12:14:41.937Z,45.88
2018-05-07T12:15:42.327Z,45.93
2018-05-07T12:16:42.051Z,45.96
2018-05-07T12:17:41.973Z,45.8
2018-05-07T12:18:41.987Z,46.02
2018-05-07T12:19:42.035Z,46.02
2018-05-07T12:20:42.015Z,46
2018-05-07T12:21:42.008Z,46.04
2018-05-07T12:22:42.058Z,46.06
2018-05-07T12:23:42.023Z,45.99
2018-05-07T12:24:42.175Z,45.98
2018-05-07T12:25:41.927Z,46.03
2018-05-07T12:26:42.028Z,46.07
2018-05-07T12:27:42.089Z,46
2018-05-07T12:28:41.983Z,46.04
2018-05-07T12:29:42.043Z,46.06
2018-05-07T12:30:42.108Z,46.04
2018-05-07T12:31:42.405Z,46.09
2018-05-07T12:32:41.858Z,46.07
2018-05-07T12:33:41.981Z,46.11
2018-05-07T12:34:41.959Z,46.09
2018-05-07T12:35:42.153Z,46.1
2018-05-07T12:36:41.908Z,46.08
2018-05-07T12:37:42.157Z,46.12
2018-05-07T12:38:41.998Z,46.11
2018-05-07T12:39:41.964Z,46.19
2018-05-07T12:40:42.015Z,46.19
2018-05-07T12:41:42.126Z,46.1
2018-05-07T12:42:42.086Z,46.12
2018-05-07T12:43:42.043Z,46.16
2018-05-07T12:44:41.981Z,46.14
2018-05-07T12:45:41.995Z,46.12
2018-05-07T12:46:42.102Z,46.11
2018-05-07T12:47:41.921Z,46.08
2018-05-07T12:48:42.090Z,46.16
2018-05-07T12:49:42.021Z,46.15
2018-05-07T12:50:41.960Z,46.16
2018-05-07T12:51:42.048Z,46.15
2018-05-07T12:52:42.166Z,46.16
2018-05-07T12:53:42.110Z,46.17
2018-05-07T12:54:42.022Z,46.15
2018-05-07T12:55:41.904Z,46.19
2018-05-07T12:56:41.967Z,46.21
2018-05-07T12:57:41.990Z,46.15
2018-05-07T12:58:41.910Z,46.13
2018-05-07T12:59:41.884Z,46.08
2018-05-07T13:00:42.040Z,46.16
2018-05-07T13:01:41.991Z,46.19
2018-05-07T13:02:41.978Z,46.16
2018-05-07T13:03:41.984Z,46.17
2018-05-07T13:04:42.112Z,46.17
2018-05-07T13:05:42.074Z,46.16
2018-05-07T13:06:41.887Z,46.14
2018-05-07T13:07:42.062Z,46.22
2018-05-07T13:08:42.076Z,46.12
2018-05-07T13:09:41.849Z,46.18
2018-05-07T13:10:42.113Z,46.16
2018-05-07T13:11:42.019Z,46.16
2018-05-07T13:12:42.098Z,46.12
2018-05-07T13:13:42.006Z,46.15
2018-05-07T13:14:42.035Z,46.12
2018-05-07T13:15:42.180Z,46.19
2018-05-07T13:16:41.957Z,46.17
2018-05-07T13:17:42.057Z,46.13
2018-05-07T13:18:42.194Z,46.15
2018-05-07T13:19:41.894Z,46.16
2018-05-07T13:20:42.138Z,46.14
2018-05-07T13:21:42.004Z,46.13
2018-05-07T13:22:42.012Z,46.13
2018-05-07T13:23:41.868Z,46.14
2018-05-07T13:24:42.080Z,46.13
2018-05-07T13:25:42.014Z,46.15
2018-05-07T13:26:41.986Z,46.17
2018-05-07T13:27:41.887Z,46.12
2018-05-07T13:28:42.016Z,46.16
2018-05-07T13:29:41.908Z,46.16
2018-05-07T13:30:42.060Z,46.09
2018-05-07T13:31:42.077Z,46.08
2018-05-07T13:32:41.915Z,46.07
2018-05-07T13:33:41.971Z,46.24
2018-05-07T13:34:42.037Z,46.07
2018-05-07T13:35:41.969Z,46.1
2018-05-07T13:36:42.285Z,46.07
2018-05-07T13:37:41.989Z,46.08
2018-05-07T13:38:41.960Z,46.14
2018-05-07T13:39:42.144Z,46.09
2018-05-07T13:40:42.442Z,46.14
2018-05-07T13:41:41.980Z,46.15
2018-05-07T13:42:42.005Z,46.14
2018-05-07T13:43:42.247Z,46.22
2018-05-07T13:44:41.963Z,46.18
2018-05-07T13:45:42.237Z,46.16
2018-05-07T13:46:41.977Z,46.22
2018-05-07T13:47:42.133Z,46.19
2018-05-07T13:48:41.953Z,46.16
2018-05-07T13:49:41.864Z,46.25
2018-05-07T13:50:42.152Z,46.2
2018-05-07T13:51:41.970Z,46.16
2018-05-07T13:52:42.173Z,46.18
2018-05-07T13:53:41.888Z,46.15
2018-05-07T13:54:42.157Z,46.16
2018-05-07T13:55:42.134Z,46.15
2018-05-07T13:56:42.154Z,46.1
2018-05-07T13:57:42.076Z,46.17
2018-05-07T13:58:42.094Z,46.2
2018-05-07T13:59:42.030Z,46.1
2018-05-07T14:00:42.048Z,46.2
2018-05-07T14:01:42.123Z,46.14
2018-05-07T14:02:42.193Z,46.16
2018-05-07T14:03:42.016Z,46.19
2018-05-07T14:04:41.990Z,46.16
2018-05-07T14:05:42.044Z,46.12
2018-05-07T14:06:42.157Z,46.21
2018-05-07T14:07:42.093Z,46.22
2018-05-07T14:08:41.970Z,46.12
2018-05-07T14:09:42.035Z,46.14
2018-05-07T14:10:42.019Z,46.17
2018-05-07T14:11:42.118Z,46.14
2018-05-07T14:12:42.117Z,46.15
2018-05-07T14:13:41.930Z,46.17
2018-05-07T14:14:42.188Z,46.15
2018-05-07T14:15:52.028Z,46.18
2018-05-07T14:16:42.224Z,46.21
2018-05-07T14:17:42.168Z,46.17
2018-05-07T14:18:42.026Z,46.15
2018-05-07T14:19:42.043Z,46.15
2018-05-07T14:20:41.967Z,46.19
2018-05-07T14:21:41.976Z,46.17
2018-05-07T14:22:42.100Z,46.15
2018-05-07T14:23:41.759Z,46.17
2018-05-07T14:24:42.079Z,46.12
2018-05-07T14:25:42.309Z,46.15
2018-05-07T14:26:41.954Z,46.18
2018-05-07T14:27:42.207Z,46.14
2018-05-07T14:28:42.006Z,46.23
2018-05-07T14:29:42.220Z,46.14
2018-05-07T14:30:41.927Z,46.17
2018-05-07T14:31:42.106Z,46.17
2018-05-07T14:32:41.945Z,46.13
2018-05-07T14:33:42.024Z,46.2
2018-05-07T14:34:42.291Z,46.22
2018-05-07T14:35:42.029Z,46.13
2018-05-07T14:36:41.898Z,46.2
2018-05-07T14:37:42.070Z,46.15
2018-05-07T14:38:42.166Z,46.17
2018-05-07T14:39:41.880Z,46.1
2018-05-07T14:40:41.922Z,46.16
2018-05-07T14:41:41.954Z,46.14
2018-05-07T14:42:42.014Z,46.18
2018-05-07T14:43:41.894Z,46.18
2018-05-07T14:44:41.907Z,46.16
2018-05-07T14:45:41.913Z,46.14
2018-05-07T14:46:42.083Z,46.16
2018-05-07T14:47:42.078Z,46.12
2018-05-07T14:48:42.027Z,46.14
2018-05-07T14:49:41.892Z,46.17
2018-05-07T14:50:42.161Z,46.13
2018-05-07T14:51:42.099Z,46.14
2018-05-07T14:52:42.130Z,46.15
2018-05-07T14:53:41.917Z,46.13
2018-05-07T14:54:41.966Z,46.03
2018-05-07T14:55:42.119Z,46.21
2018-05-07T14:56:42.067Z,46.18
2018-05-07T14:57:42.001Z,46.18
2018-05-07T14:58:42.252Z,46.22
2018-05-07T14:59:41.915Z,46.16
2018-05-07T15:00:41.826Z,46.15
2018-05-07T15:01:42.062Z,46.22
2018-05-07T15:02:42.138Z,46.17
2018-05-07T15:03:41.895Z,46.14
2018-05-07T15:04:41.984Z,46.21
2018-05-07T15:05:41.820Z,46.12
2018-05-07T15:06:41.960Z,46.14
2018-05-07T15:07:41.968Z,46.21
2018-05-07T15:08:41.931Z,46.11
2018-05-07T15:09:42.052Z,46.12
2018-05-07T15:10:42.044Z,46.18
2018-05-07T15:11:41.939Z,46.15
2018-05-07T15:12:41.891Z,46.16